Civril, Turkey
Current Conditions -  °F | °C
As of 10:50 PM on Sunday 23 Nov 2014 (Local Time) from LTAY Reporting Station
Scattered Clouds Scattered Clouds  
Wind Chill: 39°   Ceiling: Unl
Heat Index: 39°   Visibility: 6mi
Dew Point: 36°   Wind: 1mph
Humidity: 87%   Direction: NA
Pressure: 30.09"   Gusts: NA
Location:  38.3°N, 29.74°E
Report Text: LTAY 231950Z VRB01KT 9999 SCT026 04/02 Q1019
Loading
Personal Weather Stations






























Interactive Weather Map New forecast layout! Learn more

10-Day Weather Forecast

Advertisements
Track Severe Weather on mobile